createdAt,value
2019-03-30T00:00:26.401Z,0
2019-03-30T00:01:36.333Z,0
2019-03-30T00:02:46.043Z,0
2019-03-30T00:03:55.736Z,0
2019-03-30T00:05:05.686Z,0
2019-03-30T00:06:15.390Z,0
2019-03-30T00:07:25.372Z,0
2019-03-30T00:08:35.365Z,0
2019-03-30T00:09:45.340Z,0
2019-03-30T00:10:55.320Z,0
2019-03-30T00:12:07.213Z,0
2019-03-30T00:13:17.167Z,0
2019-03-30T00:14:26.598Z,0
2019-03-30T00:15:36.552Z,0
2019-03-30T00:16:46.498Z,0
2019-03-30T00:17:56.480Z,0
2019-03-30T00:19:06.437Z,0
2019-03-30T00:20:16.126Z,0
2019-03-30T00:21:25.821Z,0
2019-03-30T00:22:35.789Z,0
2019-03-30T00:23:45.739Z,0
2019-03-30T00:24:55.685Z,0
2019-03-30T00:26:05.391Z,0
2019-03-30T00:27:15.352Z,0
2019-03-30T00:28:25.058Z,0
2019-03-30T00:29:34.509Z,0
2019-03-30T00:30:44.474Z,0
2019-03-30T00:31:54.435Z,0
2019-03-30T00:33:04.169Z,0
2019-03-30T00:34:14.116Z,0
2019-03-30T00:35:24.054Z,0
2019-03-30T00:36:34.049Z,0
2019-03-30T00:37:43.738Z,0
2019-03-30T00:38:53.680Z,0
2019-03-30T00:40:03.382Z,0
2019-03-30T00:41:12.847Z,0
2019-03-30T00:42:22.810Z,0
2019-03-30T00:43:32.772Z,0
2019-03-30T00:44:42.469Z,0
2019-03-30T00:45:52.411Z,0
2019-03-30T00:47:02.118Z,0
2019-03-30T00:48:11.815Z,0
2019-03-30T00:49:21.763Z,0
2019-03-30T00:50:31.455Z,0
2019-03-30T00:51:41.155Z,0
2019-03-30T00:52:51.113Z,0
2019-03-30T00:54:00.789Z,0
2019-03-30T00:55:10.493Z,0
2019-03-30T00:56:20.233Z,0
2019-03-30T00:57:29.914Z,0
2019-03-30T00:58:39.612Z,0
2019-03-30T00:59:49.648Z,0
2019-03-30T01:00:59.376Z,0
2019-03-30T01:02:09.336Z,0
2019-03-30T01:03:19.283Z,0
2019-03-30T01:04:28.968Z,0
2019-03-30T01:05:38.657Z,0
2019-03-30T01:06:48.633Z,0
2019-03-30T01:07:58.327Z,0
2019-03-30T01:09:08.029Z,0
2019-03-30T01:10:17.973Z,0
2019-03-30T01:11:27.675Z,0
2019-03-30T01:12:37.362Z,0
2019-03-30T01:13:47.190Z,0
2019-03-30T01:14:56.659Z,0
2019-03-30T01:16:06.101Z,0
2019-03-30T01:17:15.792Z,0
2019-03-30T01:18:25.489Z,0
2019-03-30T01:19:35.198Z,0
2019-03-30T01:20:45.148Z,0
2019-03-30T01:21:56.258Z,0
2019-03-30T01:23:06.344Z,0
2019-03-30T01:24:16.312Z,0
2019-03-30T01:25:26.267Z,0
2019-03-30T01:26:36.293Z,0
2019-03-30T01:27:46.251Z,0
2019-03-30T01:28:56.198Z,0
2019-03-30T01:30:05.893Z,0
2019-03-30T01:31:15.605Z,0
2019-03-30T01:32:25.614Z,0
2019-03-30T01:33:35.311Z,0
2019-03-30T01:34:44.997Z,0
2019-03-30T01:35:54.752Z,0
2019-03-30T01:37:04.200Z,0
2019-03-30T01:38:14.168Z,0
2019-03-30T01:39:24.113Z,0
2019-03-30T01:40:34.062Z,0
2019-03-30T01:41:44.000Z,0
2019-03-30T01:42:53.434Z,0
2019-03-30T01:44:03.140Z,0
2019-03-30T01:45:13.100Z,0
2019-03-30T01:46:23.052Z,0
2019-03-30T01:47:32.748Z,0
2019-03-30T01:48:42.747Z,0
2019-03-30T01:49:52.187Z,0
2019-03-30T01:51:01.908Z,0
2019-03-30T01:52:11.868Z,0
2019-03-30T01:53:21.310Z,0
2019-03-30T01:54:31.200Z,0
2019-03-30T01:55:40.897Z,0
2019-03-30T01:56:50.606Z,0
2019-03-30T01:58:00.562Z,0
2019-03-30T01:59:10.507Z,0
2019-03-30T02:00:20.440Z,0
2019-03-30T02:01:30.135Z,0
2019-03-30T02:02:40.097Z,0
2019-03-30T02:03:50.056Z,0
2019-03-30T02:05:00.383Z,0
2019-03-30T02:06:09.839Z,0
2019-03-30T02:07:19.786Z,0
2019-03-30T02:08:29.736Z,0
2019-03-30T02:09:39.688Z,0
2019-03-30T02:10:49.638Z,0
2019-03-30T02:11:59.564Z,0
2019-03-30T02:13:09.492Z,0
2019-03-30T02:14:18.936Z,0
2019-03-30T02:15:28.392Z,0
2019-03-30T02:16:38.338Z,0
2019-03-30T02:17:48.060Z,0
2019-03-30T02:18:58.007Z,0
2019-03-30T02:20:07.710Z,0
2019-03-30T02:21:17.666Z,0
2019-03-30T02:22:27.610Z,0
2019-03-30T02:23:37.542Z,0
2019-03-30T02:24:47.494Z,0
2019-03-30T02:25:57.422Z,0
2019-03-30T02:27:07.374Z,0
2019-03-30T02:28:17.320Z,0
2019-03-30T02:29:27.255Z,0
2019-03-30T02:30:37.250Z,0
2019-03-30T02:31:47.217Z,0
2019-03-30T02:32:56.661Z,0
2019-03-30T02:34:06.657Z,0
2019-03-30T02:35:16.622Z,0
2019-03-30T02:36:26.584Z,0
2019-03-30T02:37:36.290Z,0
2019-03-30T02:38:46.262Z,0
2019-03-30T02:39:56.235Z,0
2019-03-30T02:41:06.190Z,0
2019-03-30T02:42:15.774Z,0
2019-03-30T02:43:25.766Z,0
2019-03-30T02:44:35.736Z,0
2019-03-30T02:45:45.822Z,0
2019-03-30T02:46:55.791Z,0
2019-03-30T02:48:05.529Z,0
2019-03-30T02:49:15.272Z,0
2019-03-30T02:50:24.989Z,0
2019-03-30T02:51:34.943Z,0
2019-03-30T02:52:44.669Z,0
2019-03-30T02:53:54.631Z,0
2019-03-30T02:55:04.591Z,0
2019-03-30T02:56:14.544Z,0
2019-03-30T02:57:24.263Z,0
2019-03-30T02:58:33.985Z,0
2019-03-30T02:59:43.688Z,0
2019-03-30T03:00:53.384Z,0
2019-03-30T03:02:03.184Z,0
2019-03-30T03:03:12.906Z,0
2019-03-30T03:04:22.855Z,0
2019-03-30T03:05:32.590Z,0
2019-03-30T03:06:42.362Z,0
2019-03-30T03:07:51.593Z,0
2019-03-30T03:09:01.294Z,0
2019-03-30T03:10:11.304Z,0
2019-03-30T03:11:21.258Z,0
2019-03-30T03:12:30.976Z,0
2019-03-30T03:13:40.925Z,0
2019-03-30T03:14:50.626Z,0
2019-03-30T03:16:00.084Z,0
2019-03-30T03:17:10.246Z,0
2019-03-30T03:18:19.982Z,0
2019-03-30T03:19:29.437Z,0
2019-03-30T03:20:39.145Z,0
2019-03-30T03:21:49.192Z,0
2019-03-30T03:22:58.908Z,0
2019-03-30T03:24:08.865Z,0
2019-03-30T03:25:18.835Z,0
2019-03-30T03:26:28.845Z,0
2019-03-30T03:27:38.807Z,0
2019-03-30T03:28:48.259Z,0
2019-03-30T03:29:57.958Z,0
2019-03-30T03:31:08.301Z,0
2019-03-30T03:32:18.165Z,0
2019-03-30T03:33:27.917Z,0
2019-03-30T03:34:37.747Z,0
2019-03-30T03:35:47.464Z,0
2019-03-30T03:36:57.201Z,0
2019-03-30T03:38:07.142Z,0
2019-03-30T03:39:17.225Z,0
2019-03-30T03:40:27.112Z,0
2019-03-30T03:41:36.833Z,0
2019-03-30T03:42:46.820Z,0
2019-03-30T03:43:56.797Z,0
2019-03-30T03:45:06.605Z,0
2019-03-30T03:46:16.435Z,0
2019-03-30T03:47:26.211Z,0
2019-03-30T03:48:35.898Z,0
2019-03-30T03:49:45.954Z,0
2019-03-30T03:50:55.906Z,0
2019-03-30T03:52:05.938Z,0
2019-03-30T03:53:15.905Z,0
2019-03-30T03:54:25.853Z,0
2019-03-30T03:55:35.564Z,0
2019-03-30T03:56:45.528Z,0
2019-03-30T03:57:55.492Z,0
2019-03-30T03:59:05.490Z,0
2019-03-30T04:00:15.223Z,0
2019-03-30T04:01:24.673Z,0
2019-03-30T04:02:34.680Z,0
2019-03-30T04:03:44.648Z,0
2019-03-30T04:04:56.647Z,0
2019-03-30T04:06:06.709Z,0
2019-03-30T04:07:16.166Z,0
2019-03-30T04:08:26.131Z,0
2019-03-30T04:09:36.108Z,0
2019-03-30T04:10:46.069Z,0
2019-03-30T04:11:56.027Z,0
2019-03-30T04:13:09.431Z,0
2019-03-30T04:14:19.490Z,0
2019-03-30T04:15:29.461Z,0
2019-03-30T04:16:38.982Z,0
2019-03-30T04:17:48.991Z,0
2019-03-30T04:18:58.954Z,0
2019-03-30T04:20:08.904Z,0
2019-03-30T04:21:18.610Z,0
2019-03-30T04:22:28.562Z,0
2019-03-30T04:23:38.267Z,0
2019-03-30T04:24:48.252Z,0
2019-03-30T04:25:58.230Z,0
2019-03-30T04:27:07.986Z,0
2019-03-30T04:28:17.945Z,0
2019-03-30T04:29:27.942Z,0
2019-03-30T04:30:37.958Z,0
2019-03-30T04:31:47.675Z,0
2019-03-30T04:32:57.628Z,0
2019-03-30T04:34:07.329Z,0
2019-03-30T04:35:16.789Z,0
2019-03-30T04:36:26.753Z,0
2019-03-30T04:37:36.465Z,0
2019-03-30T04:38:46.412Z,0
2019-03-30T04:39:56.375Z,0
2019-03-30T04:41:06.083Z,0
2019-03-30T04:42:16.036Z,0
2019-03-30T04:43:25.985Z,5
2019-03-30T04:44:35.926Z,5
2019-03-30T04:45:45.862Z,5
2019-03-30T04:46:55.820Z,5
2019-03-30T04:48:05.609Z,5
2019-03-30T04:49:15.323Z,5
2019-03-30T04:50:24.768Z,5
2019-03-30T04:51:34.715Z,10
2019-03-30T04:52:44.408Z,10
2019-03-30T04:53:54.096Z,10
2019-03-30T04:55:04.035Z,10
2019-03-30T04:56:13.977Z,15
2019-03-30T04:57:23.918Z,15
2019-03-30T04:58:33.863Z,15
2019-03-30T04:59:43.820Z,15
2019-03-30T05:00:53.770Z,20
2019-03-30T05:02:03.471Z,20
2019-03-30T05:03:13.183Z,20
2019-03-30T05:04:22.885Z,25
2019-03-30T05:05:32.626Z,25
2019-03-30T05:06:42.579Z,25
2019-03-30T05:07:52.532Z,30
2019-03-30T05:09:02.490Z,30
2019-03-30T05:10:12.446Z,35
2019-03-30T05:11:21.639Z,35
2019-03-30T05:12:31.347Z,35
2019-03-30T05:13:41.034Z,40
2019-03-30T05:14:50.995Z,40
2019-03-30T05:16:00.937Z,45
2019-03-30T05:17:10.872Z,45
2019-03-30T05:18:20.555Z,45
2019-03-30T05:19:30.004Z,50
2019-03-30T05:20:40.026Z,50
2019-03-30T05:21:49.706Z,55
2019-03-30T05:23:01.042Z,55
2019-03-30T05:24:10.979Z,55
2019-03-30T05:25:20.710Z,60
2019-03-30T05:26:30.391Z,60
2019-03-30T05:27:40.121Z,60
2019-03-30T05:28:49.813Z,65
2019-03-30T05:29:59.750Z,65
2019-03-30T05:31:09.718Z,70
2019-03-30T05:32:19.422Z,70
2019-03-30T05:33:29.364Z,70
2019-03-30T05:34:39.318Z,75
2019-03-30T05:35:48.253Z,75
2019-03-30T05:36:58.192Z,75
2019-03-30T05:38:10.845Z,75
2019-03-30T05:39:20.549Z,80
2019-03-30T05:40:30.232Z,80
2019-03-30T05:41:39.993Z,80
2019-03-30T05:42:49.938Z,80
2019-03-30T05:43:59.883Z,85
2019-03-30T05:45:09.485Z,85
2019-03-30T05:46:19.451Z,90
2019-03-30T05:47:29.409Z,90
2019-03-30T05:48:39.103Z,90
2019-03-30T05:49:49.055Z,95
2019-03-30T05:50:58.995Z,95
2019-03-30T05:52:08.706Z,100
2019-03-30T05:53:18.797Z,100
2019-03-30T05:54:28.503Z,105
2019-03-30T05:55:38.435Z,105
2019-03-30T05:56:48.393Z,110
2019-03-30T05:57:58.091Z,110
2019-03-30T05:59:08.027Z,115
2019-03-30T06:00:17.723Z,115
2019-03-30T06:01:27.658Z,115
2019-03-30T06:02:37.594Z,120
2019-03-30T06:03:47.543Z,120
2019-03-30T06:04:58.629Z,125
2019-03-30T06:06:08.781Z,125
2019-03-30T06:07:18.233Z,125
2019-03-30T06:08:27.926Z,130
2019-03-30T06:09:37.865Z,130
2019-03-30T06:10:48.576Z,130
2019-03-30T06:11:58.267Z,135
2019-03-30T06:13:08.291Z,135
2019-03-30T06:14:18.235Z,135
2019-03-30T06:15:27.927Z,135
2019-03-30T06:16:37.622Z,140
2019-03-30T06:17:47.585Z,140
2019-03-30T06:18:57.267Z,140
2019-03-30T06:20:06.968Z,145
2019-03-30T06:21:16.675Z,145
2019-03-30T06:22:39.382Z,145
2019-03-30T06:23:51.066Z,145
2019-03-30T06:25:01.015Z,150
2019-03-30T06:26:10.915Z,150
2019-03-30T06:27:20.854Z,150
2019-03-30T06:28:30.602Z,150
2019-03-30T06:29:40.556Z,150
2019-03-30T06:30:50.488Z,150
2019-03-30T06:32:00.453Z,150
2019-03-30T06:33:10.168Z,150
2019-03-30T06:34:19.880Z,145
2019-03-30T06:35:29.825Z,145
2019-03-30T06:36:39.508Z,145
2019-03-30T06:37:49.435Z,150
2019-03-30T06:38:59.383Z,150
2019-03-30T06:40:09.353Z,150
2019-03-30T06:41:19.045Z,150
2019-03-30T06:42:29.007Z,155
2019-03-30T06:43:38.950Z,160
2019-03-30T06:44:48.651Z,160
2019-03-30T06:45:58.603Z,160
2019-03-30T06:47:08.558Z,165
2019-03-30T06:48:18.257Z,165
2019-03-30T06:49:27.955Z,165
2019-03-30T06:50:37.896Z,165
2019-03-30T06:51:47.849Z,165
2019-03-30T06:53:07.580Z,165
2019-03-30T06:54:19.645Z,165
2019-03-30T06:55:29.358Z,165
2019-03-30T06:56:39.296Z,165
2019-03-30T06:57:49.228Z,165
2019-03-30T06:58:59.175Z,170
2019-03-30T07:00:09.360Z,170
2019-03-30T07:01:19.056Z,170
2019-03-30T07:02:29.011Z,175
2019-03-30T07:03:38.968Z,175
2019-03-30T07:04:48.164Z,175
2019-03-30T07:05:57.863Z,175
2019-03-30T07:07:07.309Z,175
2019-03-30T07:08:17.262Z,175
2019-03-30T07:09:26.719Z,175
2019-03-30T07:10:38.348Z,180
2019-03-30T07:11:48.499Z,180
2019-03-30T07:12:58.471Z,180
2019-03-30T07:14:07.925Z,185
2019-03-30T07:15:17.636Z,185
2019-03-30T07:16:27.577Z,185
2019-03-30T07:17:37.518Z,185
2019-03-30T07:18:47.499Z,185
2019-03-30T07:19:57.468Z,185
2019-03-30T07:21:07.159Z,185
2019-03-30T07:22:16.599Z,190
2019-03-30T07:23:26.287Z,190
2019-03-30T07:24:36.229Z,190
2019-03-30T07:25:46.176Z,195
2019-03-30T07:26:55.876Z,195
2019-03-30T07:28:05.566Z,200
2019-03-30T07:29:15.569Z,205
2019-03-30T07:30:25.267Z,200
2019-03-30T07:31:35.288Z,200
2019-03-30T07:32:45.004Z,195
2019-03-30T07:33:54.687Z,200
2019-03-30T07:35:04.373Z,195
2019-03-30T07:36:14.345Z,200
2019-03-30T07:37:24.038Z,200
2019-03-30T07:38:33.990Z,200
2019-03-30T07:39:43.692Z,200
2019-03-30T07:40:53.633Z,205
2019-03-30T07:42:03.585Z,205
2019-03-30T07:43:13.029Z,205
2019-03-30T07:44:22.975Z,205
2019-03-30T07:45:32.265Z,205
2019-03-30T07:46:42.223Z,205
2019-03-30T07:47:51.924Z,210
2019-03-30T07:49:01.635Z,210
2019-03-30T07:50:11.588Z,210
2019-03-30T07:51:21.285Z,215
2019-03-30T07:52:30.481Z,215
2019-03-30T07:53:53.965Z,215
2019-03-30T07:55:03.902Z,215
2019-03-30T07:56:18.398Z,215
2019-03-30T07:57:28.091Z,220
2019-03-30T07:58:38.069Z,220
2019-03-30T07:59:47.803Z,220
2019-03-30T08:00:57.265Z,225
2019-03-30T08:02:07.209Z,225
2019-03-30T08:03:16.908Z,225
2019-03-30T08:04:28.601Z,230
2019-03-30T08:05:38.745Z,230
2019-03-30T08:06:48.713Z,230
2019-03-30T08:07:58.675Z,235
2019-03-30T08:09:08.639Z,240
2019-03-30T08:10:18.340Z,240
2019-03-30T08:11:28.293Z,240
2019-03-30T08:12:38.254Z,245
2019-03-30T08:13:48.204Z,245
2019-03-30T08:14:57.915Z,250
2019-03-30T08:16:07.981Z,250
2019-03-30T08:17:17.802Z,250
2019-03-30T08:18:27.744Z,250
2019-03-30T08:19:37.682Z,250
2019-03-30T08:20:47.638Z,250
2019-03-30T08:21:57.344Z,255
2019-03-30T08:23:07.041Z,255
2019-03-30T08:24:16.735Z,260
2019-03-30T08:25:26.467Z,260
2019-03-30T08:26:38.067Z,265
2019-03-30T08:27:47.777Z,265
2019-03-30T08:28:57.712Z,265
2019-03-30T08:30:07.690Z,270
2019-03-30T08:31:17.625Z,275
2019-03-30T08:32:27.572Z,275
2019-03-30T08:33:37.509Z,275
2019-03-30T08:34:47.470Z,285
2019-03-30T08:35:57.165Z,300
2019-03-30T08:37:08.702Z,315
2019-03-30T08:38:18.642Z,315
2019-03-30T08:39:28.591Z,315
2019-03-30T08:40:38.542Z,320
2019-03-30T08:41:48.222Z,325
2019-03-30T08:42:58.181Z,320
2019-03-30T08:44:08.126Z,320
2019-03-30T08:45:18.086Z,330
2019-03-30T08:46:28.035Z,330
2019-03-30T08:47:37.494Z,330
2019-03-30T08:48:47.205Z,335
2019-03-30T08:49:56.921Z,335
2019-03-30T08:51:06.634Z,345
2019-03-30T08:52:16.340Z,345
2019-03-30T08:53:26.030Z,340
2019-03-30T08:54:36.005Z,345
2019-03-30T08:55:45.699Z,340
2019-03-30T08:56:55.419Z,350
2019-03-30T08:58:05.235Z,345
2019-03-30T08:59:14.928Z,350
2019-03-30T09:00:24.630Z,355
2019-03-30T09:01:34.073Z,350
2019-03-30T09:02:43.760Z,355
2019-03-30T09:03:53.713Z,350
2019-03-30T09:05:03.409Z,355
2019-03-30T09:06:13.370Z,355
2019-03-30T09:07:23.338Z,360
2019-03-30T09:08:33.290Z,370
2019-03-30T09:09:42.992Z,375
2019-03-30T09:10:52.687Z,385
2019-03-30T09:12:02.388Z,380
2019-03-30T09:13:12.104Z,385
2019-03-30T09:14:22.076Z,380
2019-03-30T09:15:32.023Z,385
2019-03-30T09:16:41.986Z,365
2019-03-30T09:17:52.008Z,370
2019-03-30T09:19:01.709Z,385
2019-03-30T09:20:11.495Z,395
2019-03-30T09:21:20.964Z,405
2019-03-30T09:22:30.667Z,400
2019-03-30T09:23:40.638Z,405
2019-03-30T09:24:50.624Z,410
2019-03-30T09:26:00.582Z,430
2019-03-30T09:27:10.286Z,440
2019-03-30T09:28:20.243Z,445
2019-03-30T09:29:29.940Z,450
2019-03-30T09:30:39.905Z,455
2019-03-30T09:31:49.869Z,460
2019-03-30T09:32:59.416Z,465
2019-03-30T09:34:09.397Z,470
2019-03-30T09:35:19.365Z,465
2019-03-30T09:36:28.908Z,465
2019-03-30T09:37:38.900Z,475
2019-03-30T09:38:48.858Z,500
2019-03-30T09:39:58.922Z,515
2019-03-30T09:41:08.890Z,505
2019-03-30T09:42:18.846Z,485
2019-03-30T09:43:28.314Z,515
2019-03-30T09:44:38.278Z,525
2019-03-30T09:45:48.259Z,550
2019-03-30T09:46:58.222Z,555
2019-03-30T09:48:07.957Z,555
2019-03-30T09:49:17.416Z,595
2019-03-30T09:50:27.403Z,635
2019-03-30T09:51:37.338Z,690
2019-03-30T09:52:47.072Z,705
2019-03-30T09:53:56.818Z,655
2019-03-30T09:55:06.517Z,700
2019-03-30T09:56:16.486Z,700
2019-03-30T09:57:26.466Z,665
2019-03-30T09:58:36.170Z,590
2019-03-30T09:59:46.121Z,605
2019-03-30T10:00:56.101Z,590
2019-03-30T10:02:06.050Z,665
2019-03-30T10:03:15.800Z,685
2019-03-30T10:04:25.246Z,575
2019-03-30T10:05:35.202Z,595
2019-03-30T10:06:45.169Z,690
2019-03-30T10:07:55.148Z,700
2019-03-30T10:09:04.876Z,745
2019-03-30T10:10:15.038Z,780
2019-03-30T10:11:24.737Z,865
2019-03-30T10:12:34.438Z,925
2019-03-30T10:13:43.890Z,975
2019-03-30T10:14:53.838Z,970
2019-03-30T10:16:03.586Z,1010
2019-03-30T10:17:13.567Z,1030
2019-03-30T10:18:23.531Z,1070
2019-03-30T10:19:35.036Z,1035
2019-03-30T10:20:45.016Z,1035
2019-03-30T10:21:54.963Z,1060
2019-03-30T10:23:04.923Z,1065
2019-03-30T10:24:14.619Z,1120
2019-03-30T10:25:24.583Z,1185
2019-03-30T10:26:34.531Z,1215
2019-03-30T10:27:44.223Z,1200
2019-03-30T10:28:56.629Z,1245
2019-03-30T10:30:06.354Z,1290
2019-03-30T10:31:16.316Z,1250
2019-03-30T10:32:26.270Z,1190
2019-03-30T10:33:35.977Z,1140
2019-03-30T10:34:48.826Z,1190
2019-03-30T10:35:58.781Z,1200
2019-03-30T10:37:08.492Z,1270
2019-03-30T10:38:18.194Z,1190
2019-03-30T10:39:28.159Z,1125
2019-03-30T10:40:37.866Z,1035
2019-03-30T10:41:47.832Z,1005
2019-03-30T10:42:57.805Z,950
2019-03-30T10:44:07.838Z,1235
2019-03-30T10:45:17.802Z,1215
2019-03-30T10:46:27.767Z,1070
2019-03-30T10:47:37.715Z,1220
2019-03-30T10:48:47.432Z,1355
2019-03-30T10:49:57.576Z,1355
2019-03-30T10:51:07.025Z,1370
2019-03-30T10:52:16.754Z,1360
2019-03-30T10:53:26.463Z,1340
2019-03-30T10:54:36.163Z,1375
2019-03-30T10:55:45.877Z,1525
2019-03-30T10:56:55.594Z,1615
2019-03-30T10:58:07.810Z,1525
2019-03-30T10:59:17.270Z,1515
2019-03-30T11:00:27.241Z,1560
2019-03-30T11:01:37.200Z,1540
2019-03-30T11:02:46.923Z,1535
2019-03-30T11:03:56.887Z,1525
2019-03-30T11:05:06.611Z,1415
2019-03-30T11:06:16.546Z,1475
2019-03-30T11:07:26.517Z,1630
2019-03-30T11:08:36.226Z,1505
2019-03-30T11:09:49.396Z,1610
2019-03-30T11:10:59.546Z,1685
2019-03-30T11:12:09.507Z,1680
2019-03-30T11:13:19.492Z,1595
2019-03-30T11:14:29.527Z,1595
2019-03-30T11:15:41.365Z,1600
2019-03-30T11:16:51.386Z,1730
2019-03-30T11:18:01.092Z,1665
2019-03-30T11:19:11.037Z,1680
2019-03-30T11:20:20.840Z,1755
2019-03-30T11:21:30.789Z,1810
2019-03-30T11:22:40.778Z,1755
2019-03-30T11:23:50.741Z,1700
2019-03-30T11:25:14.537Z,1725
2019-03-30T11:26:24.246Z,1760
2019-03-30T11:27:33.952Z,1830
2019-03-30T11:28:43.679Z,1825
2019-03-30T11:29:53.641Z,1870
2019-03-30T11:31:05.359Z,1770
2019-03-30T11:32:15.285Z,1675
2019-03-30T11:33:25.004Z,1815
2019-03-30T11:34:34.981Z,1995
2019-03-30T11:35:44.690Z,2105
2019-03-30T11:36:54.659Z,2020
2019-03-30T11:38:04.712Z,1910
2019-03-30T11:39:14.438Z,1915
2019-03-30T11:40:24.157Z,1865
2019-03-30T11:41:34.645Z,1920
2019-03-30T11:42:44.647Z,1965
2019-03-30T11:43:54.612Z,2090
2019-03-30T11:45:04.580Z,1980
2019-03-30T11:46:14.304Z,1905
2019-03-30T11:47:24.005Z,1915
2019-03-30T11:48:37.224Z,1900
2019-03-30T11:49:47.439Z,1890
2019-03-30T11:50:57.465Z,1895
2019-03-30T11:52:07.186Z,2055
2019-03-30T11:53:17.145Z,2170
2019-03-30T11:54:26.945Z,2020
2019-03-30T11:55:36.890Z,1860
2019-03-30T11:56:46.873Z,1930
2019-03-30T11:57:56.581Z,1970
2019-03-30T11:59:06.308Z,2105
2019-03-30T12:00:16.295Z,2240
2019-03-30T12:01:28.506Z,2040
2019-03-30T12:02:38.484Z,2175
2019-03-30T12:03:48.449Z,2105
2019-03-30T12:04:58.423Z,2040
2019-03-30T12:06:08.414Z,2110
2019-03-30T12:07:17.872Z,2080
2019-03-30T12:08:27.633Z,2195
2019-03-30T12:09:37.617Z,2115
2019-03-30T12:10:47.581Z,2185
2019-03-30T12:11:57.339Z,2060
2019-03-30T12:13:07.308Z,2115
2019-03-30T12:14:17.281Z,2215
2019-03-30T12:15:26.806Z,2180
2019-03-30T12:16:36.800Z,2110
2019-03-30T12:17:50.494Z,2145
2019-03-30T12:19:00.241Z,2210
2019-03-30T12:20:09.967Z,2215
2019-03-30T12:21:19.937Z,2340
2019-03-30T12:22:29.656Z,2285
2019-03-30T12:23:42.545Z,2120
2019-03-30T12:24:52.603Z,2095
2019-03-30T12:26:02.323Z,2130
2019-03-30T12:27:12.283Z,2270
2019-03-30T12:28:21.741Z,2355
2019-03-30T12:29:31.716Z,2335
2019-03-30T12:30:41.508Z,2370
2019-03-30T12:31:51.469Z,2450
2019-03-30T12:33:01.208Z,2375
2019-03-30T12:34:13.042Z,2335
2019-03-30T12:35:23.219Z,2460
2019-03-30T12:36:33.198Z,2335
2019-03-30T12:37:43.159Z,2405
2019-03-30T12:38:53.112Z,2380
2019-03-30T12:40:05.597Z,2405
2019-03-30T12:41:15.319Z,2435
2019-03-30T12:42:24.790Z,2515
2019-03-30T12:43:34.730Z,2320
2019-03-30T12:44:44.440Z,2245
2019-03-30T12:45:53.900Z,2600
2019-03-30T12:47:03.617Z,2825
2019-03-30T12:48:13.597Z,2485
2019-03-30T12:49:23.554Z,2355
2019-03-30T12:50:33.525Z,2405
2019-03-30T12:51:43.482Z,2350
2019-03-30T12:52:53.448Z,2455
2019-03-30T12:54:03.164Z,2585
2019-03-30T12:55:13.117Z,2520
2019-03-30T12:56:22.830Z,2470
2019-03-30T12:57:32.559Z,2435
2019-03-30T12:58:42.516Z,2545
2019-03-30T12:59:52.486Z,2450
2019-03-30T13:01:02.463Z,2430
2019-03-30T13:02:12.421Z,2355
2019-03-30T13:03:22.383Z,2330
2019-03-30T13:04:31.853Z,2255
2019-03-30T13:05:41.549Z,2370
2019-03-30T13:06:51.262Z,2350
2019-03-30T13:08:01.235Z,2335
2019-03-30T13:09:11.193Z,2310
2019-03-30T13:10:21.150Z,2395
2019-03-30T13:11:30.866Z,2400
2019-03-30T13:12:40.840Z,2315
2019-03-30T13:13:50.814Z,2350
2019-03-30T13:15:00.540Z,2420
2019-03-30T13:16:10.251Z,2505
2019-03-30T13:17:20.205Z,2635
2019-03-30T13:18:30.181Z,2945
2019-03-30T13:19:40.145Z,2635
2019-03-30T13:20:49.850Z,2585
2019-03-30T13:22:02.737Z,2475
2019-03-30T13:23:12.700Z,2615
2019-03-30T13:24:22.676Z,2560
2019-03-30T13:25:32.635Z,2600
2019-03-30T13:26:42.607Z,2595
2019-03-30T13:27:55.874Z,2590
2019-03-30T13:29:05.849Z,2680
2019-03-30T13:30:15.556Z,2550
2019-03-30T13:31:25.541Z,2425
2019-03-30T13:32:35.515Z,2390
2019-03-30T13:33:45.476Z,2480
2019-03-30T13:34:55.193Z,2470
2019-03-30T13:36:05.171Z,2515
2019-03-30T13:37:15.142Z,2565
2019-03-30T13:38:30.404Z,2525
2019-03-30T13:39:40.361Z,2520
2019-03-30T13:40:50.084Z,2450
2019-03-30T13:41:59.790Z,2295
2019-03-30T13:43:09.759Z,2375
2019-03-30T13:44:19.492Z,2460
2019-03-30T13:45:29.203Z,2565
2019-03-30T13:46:39.181Z,2715
2019-03-30T13:47:48.653Z,2490
2019-03-30T13:48:58.637Z,2495
2019-03-30T13:50:08.381Z,2685
2019-03-30T13:51:18.372Z,2605
2019-03-30T13:52:28.345Z,2495
2019-03-30T13:53:38.078Z,2445
2019-03-30T13:54:48.206Z,2545
2019-03-30T13:55:57.912Z,2635
2019-03-30T13:57:07.369Z,2615
2019-03-30T13:58:17.336Z,2520
2019-03-30T13:59:26.796Z,2365
2019-03-30T14:00:36.503Z,2440
2019-03-30T14:01:46.473Z,2500
2019-03-30T14:02:56.504Z,2495
2019-03-30T14:04:06.469Z,2465
2019-03-30T14:05:16.257Z,2515
2019-03-30T14:06:25.969Z,2455
2019-03-30T14:07:35.693Z,2405
2019-03-30T14:08:45.664Z,2395
2019-03-30T14:09:55.383Z,2430
2019-03-30T14:11:05.348Z,2395
2019-03-30T14:12:14.819Z,2360
2019-03-30T14:13:24.533Z,2395
2019-03-30T14:14:33.977Z,2440
2019-03-30T14:15:43.944Z,2400
2019-03-30T14:16:53.930Z,2425
2019-03-30T14:18:03.635Z,2445
2019-03-30T14:19:13.612Z,2275
2019-03-30T14:20:23.572Z,2400
2019-03-30T14:21:33.589Z,2380
2019-03-30T14:22:43.560Z,2255
2019-03-30T14:23:53.558Z,2185
2019-03-30T14:25:03.557Z,2220
2019-03-30T14:26:13.528Z,2360
2019-03-30T14:27:23.293Z,2360
2019-03-30T14:28:33.233Z,2310
2019-03-30T14:29:43.183Z,2285
2019-03-30T14:30:52.910Z,2260
2019-03-30T14:32:02.881Z,2225
2019-03-30T14:33:12.841Z,2250
2019-03-30T14:34:22.823Z,2105
2019-03-30T14:35:32.538Z,2145
2019-03-30T14:36:42.499Z,2225
2019-03-30T14:37:52.495Z,2285
2019-03-30T14:39:02.225Z,2255
2019-03-30T14:40:12.202Z,2230
2019-03-30T14:41:22.161Z,2235
2019-03-30T14:42:32.128Z,2195
2019-03-30T14:43:42.101Z,2200
2019-03-30T14:44:51.553Z,2030
2019-03-30T14:46:01.596Z,2205
2019-03-30T14:47:11.555Z,2145
2019-03-30T14:48:21.004Z,2125
2019-03-30T14:49:30.977Z,1915
2019-03-30T14:50:40.689Z,1975
2019-03-30T14:51:50.648Z,2080
2019-03-30T14:53:00.374Z,2135
2019-03-30T14:54:10.334Z,2050
2019-03-30T14:55:20.301Z,2015
2019-03-30T14:56:30.030Z,2040
2019-03-30T14:57:39.758Z,2050
2019-03-30T14:58:49.848Z,1905
2019-03-30T14:59:59.364Z,2040
2019-03-30T15:01:12.825Z,2055
2019-03-30T15:02:22.301Z,2060
2019-03-30T15:03:31.774Z,1965
2019-03-30T15:04:41.730Z,1845
2019-03-30T15:05:51.173Z,1925
2019-03-30T15:07:00.888Z,1980
2019-03-30T15:08:10.615Z,1955
2019-03-30T15:09:20.584Z,1905
2019-03-30T15:10:30.541Z,1965
2019-03-30T15:11:42.825Z,1950
2019-03-30T15:12:52.778Z,1880
2019-03-30T15:14:02.736Z,1800
2019-03-30T15:15:12.453Z,1790
2019-03-30T15:16:21.908Z,1800
2019-03-30T15:17:31.879Z,1840
2019-03-30T15:18:41.594Z,1755
2019-03-30T15:19:51.554Z,1265
2019-03-30T15:21:01.518Z,1210
2019-03-30T15:22:11.222Z,1740
2019-03-30T15:23:20.668Z,1805
2019-03-30T15:24:30.649Z,1805
2019-03-30T15:25:40.622Z,1790
2019-03-30T15:27:04.650Z,1710
2019-03-30T15:28:14.114Z,1705
2019-03-30T15:29:24.061Z,1730
2019-03-30T15:30:34.021Z,1745
2019-03-30T15:31:43.737Z,1730
2019-03-30T15:32:53.479Z,1695
2019-03-30T15:34:03.202Z,1675
2019-03-30T15:35:12.687Z,1665
2019-03-30T15:36:22.664Z,1610
2019-03-30T15:37:32.638Z,1565
2019-03-30T15:38:42.351Z,1580
2019-03-30T15:39:51.826Z,1590
2019-03-30T15:41:05.320Z,1605
2019-03-30T15:42:15.284Z,1575
2019-03-30T15:43:39.864Z,1510
2019-03-30T15:44:49.568Z,1510
2019-03-30T15:45:59.538Z,1475
2019-03-30T15:47:09.499Z,1470
2019-03-30T15:48:19.222Z,1510
2019-03-30T15:49:29.184Z,1510
2019-03-30T15:50:39.153Z,1460
2019-03-30T15:51:49.154Z,1430
2019-03-30T15:52:58.881Z,1440
2019-03-30T15:54:08.859Z,1430
2019-03-30T15:55:18.837Z,1370
2019-03-30T15:56:28.794Z,1375
2019-03-30T15:57:38.745Z,1345
2019-03-30T15:58:48.202Z,1325
2019-03-30T15:59:57.910Z,1370
2019-03-30T16:01:07.618Z,1405
2019-03-30T16:02:17.336Z,1390
2019-03-30T16:03:27.053Z,1280
2019-03-30T16:04:37.016Z,1265
2019-03-30T16:05:46.728Z,1270
2019-03-30T16:06:56.682Z,1210
2019-03-30T16:08:06.637Z,1195
2019-03-30T16:09:16.364Z,980
2019-03-30T16:10:26.342Z,755
2019-03-30T16:11:36.057Z,975
2019-03-30T16:12:46.030Z,1075
2019-03-30T16:13:55.990Z,1075